sensor_id;sensor_type;location;lat;lon;timestamp;P1;durP1;ratioP1;P2;durP2;ratioP2
6791;SDS011;3433;48.730;9.108;2023-02-23T00:02:55;22.83;;;12.90;;
6791;SDS011;3433;48.730;9.108;2023-02-23T00:06:01;26.30;;;12.40;;
6791;SDS011;3433;48.730;9.108;2023-02-23T00:09:14;19.70;;;12.50;;
6791;SDS011;3433;48.730;9.108;2023-02-23T00:12:15;21.53;;;12.60;;
6791;SDS011;3433;48.730;9.108;2023-02-23T00:15:25;25.40;;;12.87;;
6791;SDS011;3433;48.730;9.108;2023-02-23T00:18:17;18.73;;;12.20;;
6791;SDS011;3433;48.730;9.108;2023-02-23T00:21:18;26.17;;;12.90;;
6791;SDS011;3433;48.730;9.108;2023-02-23T00:24:10;23.13;;;13.13;;
6791;SDS011;3433;48.730;9.108;2023-02-23T00:27:11;22.17;;;13.30;;
6791;SDS011;3433;48.730;9.108;2023-02-23T00:30:14;20.93;;;13.07;;
6791;SDS011;3433;48.730;9.108;2023-02-23T00:33:09;22.30;;;14.03;;
6791;SDS011;3433;48.730;9.108;2023-02-23T00:36:24;21.20;;;13.83;;
6791;SDS011;3433;48.730;9.108;2023-02-23T00:39:29;24.53;;;14.93;;
6791;SDS011;3433;48.730;9.108;2023-02-23T00:42:28;27.70;;;15.67;;
6791;SDS011;3433;48.730;9.108;2023-02-23T00:45:38;23.10;;;14.53;;
6791;SDS011;3433;48.730;9.108;2023-02-23T00:48:26;24.97;;;14.77;;
6791;SDS011;3433;48.730;9.108;2023-02-23T00:51:17;21.40;;;14.30;;
6791;SDS011;3433;48.730;9.108;2023-02-23T00:54:23;27.60;;;15.93;;
6791;SDS011;3433;48.730;9.108;2023-02-23T00:57:37;23.90;;;15.20;;
6791;SDS011;3433;48.730;9.108;2023-02-23T01:00:45;24.40;;;14.63;;
6791;SDS011;3433;48.730;9.108;2023-02-23T01:03:51;19.50;;;13.40;;
6791;SDS011;3433;48.730;9.108;2023-02-23T01:06:51;23.00;;;15.10;;
6791;SDS011;3433;48.730;9.108;2023-02-23T01:10:00;23.87;;;16.10;;
6791;SDS011;3433;48.730;9.108;2023-02-23T01:13:08;24.60;;;16.43;;
6791;SDS011;3433;48.730;9.108;2023-02-23T01:16:05;24.00;;;15.10;;
6791;SDS011;3433;48.730;9.108;2023-02-23T01:18:58;25.90;;;15.10;;
6791;SDS011;3433;48.730;9.108;2023-02-23T01:22:04;25.50;;;16.00;;
6791;SDS011;3433;48.730;9.108;2023-02-23T01:25:15;28.47;;;14.93;;
6791;SDS011;3433;48.730;9.108;2023-02-23T01:28:16;25.80;;;13.67;;
6791;SDS011;3433;48.730;9.108;2023-02-23T01:31:13;24.50;;;14.87;;
6791;SDS011;3433;48.730;9.108;2023-02-23T01:34:13;26.50;;;14.67;;
6791;SDS011;3433;48.730;9.108;2023-02-23T01:37:09;24.23;;;16.00;;
6791;SDS011;3433;48.730;9.108;2023-02-23T01:40:18;31.60;;;18.80;;
6791;SDS011;3433;48.730;9.108;2023-02-23T01:43:27;27.90;;;16.10;;
6791;SDS011;3433;48.730;9.108;2023-02-23T01:46:26;29.23;;;16.17;;
6791;SDS011;3433;48.730;9.108;2023-02-23T01:49:21;27.50;;;16.37;;
6791;SDS011;3433;48.730;9.108;2023-02-23T01:52:17;23.97;;;16.03;;
6791;SDS011;3433;48.730;9.108;2023-02-23T01:55:12;26.93;;;17.47;;
6791;SDS011;3433;48.730;9.108;2023-02-23T01:58:15;29.67;;;16.30;;
6791;SDS011;3433;48.730;9.108;2023-02-23T02:01:15;26.83;;;16.13;;
6791;SDS011;3433;48.730;9.108;2023-02-23T02:04:24;26.90;;;15.53;;
6791;SDS011;3433;48.730;9.108;2023-02-23T02:07:20;28.03;;;16.40;;
6791;SDS011;3433;48.730;9.108;2023-02-23T02:10:18;26.10;;;15.80;;
6791;SDS011;3433;48.730;9.108;2023-02-23T02:13:27;26.87;;;16.27;;
6791;SDS011;3433;48.730;9.108;2023-02-23T02:16:30;25.10;;;15.40;;
6791;SDS011;3433;48.730;9.108;2023-02-23T02:26:59;27.40;;;14.77;;
6791;SDS011;3433;48.730;9.108;2023-02-23T02:33:22;25.47;;;14.40;;
6791;SDS011;3433;48.730;9.108;2023-02-23T02:40:03;24.47;;;11.97;;
6791;SDS011;3433;48.730;9.108;2023-02-23T02:43:04;25.67;;;13.23;;
6791;SDS011;3433;48.730;9.108;2023-02-23T02:45:58;19.20;;;12.00;;
6791;SDS011;3433;48.730;9.108;2023-02-23T02:48:51;16.40;;;11.13;;
6791;SDS011;3433;48.730;9.108;2023-02-23T02:51:45;21.23;;;11.17;;
6791;SDS011;3433;48.730;9.108;2023-02-23T02:54:39;18.07;;;11.60;;
6791;SDS011;3433;48.730;9.108;2023-02-23T02:57:29;17.13;;;10.73;;
6791;SDS011;3433;48.730;9.108;2023-02-23T03:00:21;17.20;;;10.20;;
6791;SDS011;3433;48.730;9.108;2023-02-23T03:03:36;16.00;;;11.07;;
6791;SDS011;3433;48.730;9.108;2023-02-23T03:06:44;16.97;;;10.30;;
6791;SDS011;3433;48.730;9.108;2023-02-23T03:09:52;20.53;;;10.83;;
6791;SDS011;3433;48.730;9.108;2023-02-23T03:13:04;16.50;;;10.10;;
6791;SDS011;3433;48.730;9.108;2023-02-23T03:16:18;16.40;;;9.37;;
6791;SDS011;3433;48.730;9.108;2023-02-23T03:19:29;14.73;;;9.20;;
6791;SDS011;3433;48.730;9.108;2023-02-23T03:22:37;12.60;;;8.77;;
6791;SDS011;3433;48.730;9.108;2023-02-23T03:25:50;14.80;;;9.67;;
6791;SDS011;3433;48.730;9.108;2023-02-23T03:29:01;16.33;;;9.80;;
6791;SDS011;3433;48.730;9.108;2023-02-23T03:32:09;15.13;;;9.60;;
6791;SDS011;3433;48.730;9.108;2023-02-23T03:35:21;15.13;;;9.80;;
6791;SDS011;3433;48.730;9.108;2023-02-23T03:38:31;14.30;;;9.60;;
6791;SDS011;3433;48.730;9.108;2023-02-23T03:41:42;15.10;;;9.80;;
6791;SDS011;3433;48.730;9.108;2023-02-23T03:44:47;16.70;;;10.40;;
6791;SDS011;3433;48.730;9.108;2023-02-23T03:47:55;17.37;;;9.00;;
6791;SDS011;3433;48.730;9.108;2023-02-23T03:51:03;17.07;;;8.83;;
6791;SDS011;3433;48.730;9.108;2023-02-23T03:54:11;13.90;;;9.20;;
6791;SDS011;3433;48.730;9.108;2023-02-23T03:57:21;16.47;;;10.07;;
6791;SDS011;3433;48.730;9.108;2023-02-23T04:00:31;17.57;;;9.53;;
6791;SDS011;3433;48.730;9.108;2023-02-23T04:03:39;14.00;;;8.87;;
6791;SDS011;3433;48.730;9.108;2023-02-23T04:06:46;14.60;;;9.20;;
6791;SDS011;3433;48.730;9.108;2023-02-23T04:09:52;15.53;;;8.50;;
6791;SDS011;3433;48.730;9.108;2023-02-23T04:12:59;19.37;;;8.03;;
6791;SDS011;3433;48.730;9.108;2023-02-23T04:16:00;11.67;;;7.20;;
6791;SDS011;3433;48.730;9.108;2023-02-23T04:18:49;11.30;;;6.90;;
6791;SDS011;3433;48.730;9.108;2023-02-23T04:21:37;10.37;;;6.23;;
6791;SDS011;3433;48.730;9.108;2023-02-23T04:24:24;11.37;;;7.13;;
6791;SDS011;3433;48.730;9.108;2023-02-23T04:27:11;9.40;;;6.70;;
6791;SDS011;3433;48.730;9.108;2023-02-23T04:30:00;9.70;;;6.13;;
6791;SDS011;3433;48.730;9.108;2023-02-23T04:32:48;11.73;;;6.70;;
6791;SDS011;3433;48.730;9.108;2023-02-23T04:35:35;13.30;;;6.13;;
6791;SDS011;3433;48.730;9.108;2023-02-23T04:38:23;12.03;;;6.80;;
6791;SDS011;3433;48.730;9.108;2023-02-23T04:41:10;8.50;;;5.97;;
6791;SDS011;3433;48.730;9.108;2023-02-23T04:43:57;8.50;;;5.93;;
6791;SDS011;3433;48.730;9.108;2023-02-23T04:46:46;7.70;;;5.37;;
6791;SDS011;3433;48.730;9.108;2023-02-23T04:49:33;9.77;;;5.83;;
6791;SDS011;3433;48.730;9.108;2023-02-23T04:52:20;8.80;;;5.50;;
6791;SDS011;3433;48.730;9.108;2023-02-23T04:55:08;11.93;;;6.13;;
6791;SDS011;3433;48.730;9.108;2023-02-23T04:58:01;10.50;;;5.43;;
6791;SDS011;3433;48.730;9.108;2023-02-23T05:00:49;9.73;;;6.00;;
6791;SDS011;3433;48.730;9.108;2023-02-23T05:03:37;9.77;;;5.70;;
6791;SDS011;3433;48.730;9.108;2023-02-23T05:06:25;10.10;;;5.70;;
6791;SDS011;3433;48.730;9.108;2023-02-23T05:09:12;9.50;;;6.07;;
6791;SDS011;3433;48.730;9.108;2023-02-23T05:11:59;12.73;;;6.77;;
6791;SDS011;3433;48.730;9.108;2023-02-23T05:14:47;11.47;;;7.67;;
6791;SDS011;3433;48.730;9.108;2023-02-23T05:17:34;10.67;;;7.30;;
6791;SDS011;3433;48.730;9.108;2023-02-23T05:20:25;13.77;;;6.80;;
6791;SDS011;3433;48.730;9.108;2023-02-23T05:23:12;11.10;;;6.27;;
6791;SDS011;3433;48.730;9.108;2023-02-23T05:26:00;17.43;;;7.00;;
6791;SDS011;3433;48.730;9.108;2023-02-23T05:28:50;13.00;;;7.27;;
6791;SDS011;3433;48.730;9.108;2023-02-23T05:31:37;10.23;;;6.90;;
6791;SDS011;3433;48.730;9.108;2023-02-23T05:34:24;10.73;;;7.23;;
6791;SDS011;3433;48.730;9.108;2023-02-23T05:37:13;12.00;;;7.30;;
6791;SDS011;3433;48.730;9.108;2023-02-23T05:40:01;10.60;;;7.03;;
6791;SDS011;3433;48.730;9.108;2023-02-23T05:42:48;15.27;;;8.07;;
6791;SDS011;3433;48.730;9.108;2023-02-23T05:45:38;10.90;;;7.30;;
6791;SDS011;3433;48.730;9.108;2023-02-23T05:48:26;12.30;;;7.50;;
6791;SDS011;3433;48.730;9.108;2023-02-23T05:51:14;10.33;;;6.80;;
6791;SDS011;3433;48.730;9.108;2023-02-23T05:54:03;9.80;;;6.23;;
6791;SDS011;3433;48.730;9.108;2023-02-23T05:56:52;14.97;;;7.63;;
6791;SDS011;3433;48.730;9.108;2023-02-23T05:59:39;11.70;;;6.60;;
6791;SDS011;3433;48.730;9.108;2023-02-23T06:02:26;10.20;;;6.80;;
6791;SDS011;3433;48.730;9.108;2023-02-23T06:05:13;13.10;;;8.37;;
6791;SDS011;3433;48.730;9.108;2023-02-23T06:08:01;14.50;;;8.17;;
6791;SDS011;3433;48.730;9.108;2023-02-23T06:10:49;13.10;;;7.97;;
6791;SDS011;3433;48.730;9.108;2023-02-23T06:13:36;10.40;;;7.13;;
6791;SDS011;3433;48.730;9.108;2023-02-23T06:16:24;12.57;;;7.50;;
6791;SDS011;3433;48.730;9.108;2023-02-23T06:19:12;10.07;;;7.43;;
6791;SDS011;3433;48.730;9.108;2023-02-23T06:21:59;15.03;;;7.83;;
6791;SDS011;3433;48.730;9.108;2023-02-23T06:24:46;10.90;;;7.87;;
6791;SDS011;3433;48.730;9.108;2023-02-23T06:27:35;13.27;;;7.20;;
6791;SDS011;3433;48.730;9.108;2023-02-23T06:30:23;9.83;;;6.77;;
6791;SDS011;3433;48.730;9.108;2023-02-23T06:33:10;11.33;;;7.47;;
6791;SDS011;3433;48.730;9.108;2023-02-23T06:35:57;10.80;;;7.70;;
6791;SDS011;3433;48.730;9.108;2023-02-23T06:38:45;10.90;;;7.17;;
6791;SDS011;3433;48.730;9.108;2023-02-23T06:41:32;14.47;;;8.20;;
6791;SDS011;3433;48.730;9.108;2023-02-23T06:44:21;12.50;;;7.90;;
6791;SDS011;3433;48.730;9.108;2023-02-23T06:47:08;12.90;;;8.30;;
6791;SDS011;3433;48.730;9.108;2023-02-23T06:49:55;16.73;;;8.90;;
6791;SDS011;3433;48.730;9.108;2023-02-23T06:52:44;12.33;;;7.80;;
6791;SDS011;3433;48.730;9.108;2023-02-23T06:55:31;11.00;;;8.27;;
6791;SDS011;3433;48.730;9.108;2023-02-23T06:58:18;14.87;;;8.53;;
6791;SDS011;3433;48.730;9.108;2023-02-23T07:01:07;12.40;;;9.67;;
6791;SDS011;3433;48.730;9.108;2023-02-23T07:03:56;12.87;;;8.70;;
6791;SDS011;3433;48.730;9.108;2023-02-23T07:06:43;14.27;;;9.10;;
6791;SDS011;3433;48.730;9.108;2023-02-23T07:09:30;12.60;;;8.97;;
6791;SDS011;3433;48.730;9.108;2023-02-23T07:12:18;13.57;;;8.93;;
6791;SDS011;3433;48.730;9.108;2023-02-23T07:15:05;14.60;;;9.13;;
6791;SDS011;3433;48.730;9.108;2023-02-23T07:17:55;15.77;;;8.83;;
6791;SDS011;3433;48.730;9.108;2023-02-23T07:20:43;16.73;;;8.90;;
6791;SDS011;3433;48.730;9.108;2023-02-23T07:23:30;13.33;;;9.27;;
6791;SDS011;3433;48.730;9.108;2023-02-23T07:26:17;15.47;;;9.57;;
6791;SDS011;3433;48.730;9.108;2023-02-23T07:29:04;19.60;;;11.00;;
6791;SDS011;3433;48.730;9.108;2023-02-23T07:31:52;17.00;;;10.20;;
6791;SDS011;3433;48.730;9.108;2023-02-23T07:34:41;18.10;;;11.07;;
6791;SDS011;3433;48.730;9.108;2023-02-23T07:37:28;20.47;;;10.77;;
6791;SDS011;3433;48.730;9.108;2023-02-23T07:40:15;14.57;;;9.17;;
6791;SDS011;3433;48.730;9.108;2023-02-23T07:43:03;16.97;;;9.30;;
6791;SDS011;3433;48.730;9.108;2023-02-23T07:45:51;13.70;;;7.50;;
6791;SDS011;3433;48.730;9.108;2023-02-23T07:48:38;14.10;;;8.20;;
6791;SDS011;3433;48.730;9.108;2023-02-23T07:51:27;10.47;;;7.03;;
6791;SDS011;3433;48.730;9.108;2023-02-23T07:54:15;11.57;;;5.70;;
6791;SDS011;3433;48.730;9.108;2023-02-23T07:57:02;9.80;;;6.23;;
6791;SDS011;3433;48.730;9.108;2023-02-23T07:59:49;9.57;;;6.10;;
6791;SDS011;3433;48.730;9.108;2023-02-23T08:02:36;9.53;;;6.00;;
6791;SDS011;3433;48.730;9.108;2023-02-23T08:05:23;11.70;;;6.67;;
6791;SDS011;3433;48.730;9.108;2023-02-23T08:08:12;9.50;;;6.33;;
6791;SDS011;3433;48.730;9.108;2023-02-23T08:11:00;8.97;;;6.73;;
6791;SDS011;3433;48.730;9.108;2023-02-23T08:13:47;9.60;;;6.63;;
6791;SDS011;3433;48.730;9.108;2023-02-23T08:16:35;13.77;;;6.77;;
6791;SDS011;3433;48.730;9.108;2023-02-23T08:19:22;11.50;;;6.53;;
6791;SDS011;3433;48.730;9.108;2023-02-23T08:22:09;9.13;;;5.90;;
6791;SDS011;3433;48.730;9.108;2023-02-23T08:24:58;11.33;;;7.17;;
6791;SDS011;3433;48.730;9.108;2023-02-23T08:27:46;12.10;;;6.60;;
6791;SDS011;3433;48.730;9.108;2023-02-23T08:30:36;19.20;;;7.10;;
6791;SDS011;3433;48.730;9.108;2023-02-23T08:33:23;11.40;;;7.40;;
6791;SDS011;3433;48.730;9.108;2023-02-23T08:36:11;10.37;;;6.70;;
6791;SDS011;3433;48.730;9.108;2023-02-23T08:38:58;16.80;;;7.30;;
6791;SDS011;3433;48.730;9.108;2023-02-23T08:41:48;10.43;;;6.43;;
6791;SDS011;3433;48.730;9.108;2023-02-23T08:44:35;12.83;;;6.73;;
6791;SDS011;3433;48.730;9.108;2023-02-23T08:47:22;8.73;;;6.07;;
6791;SDS011;3433;48.730;9.108;2023-02-23T08:50:11;9.60;;;6.27;;
6791;SDS011;3433;48.730;9.108;2023-02-23T08:52:59;11.67;;;6.27;;
6791;SDS011;3433;48.730;9.108;2023-02-23T08:55:46;12.97;;;6.80;;
6791;SDS011;3433;48.730;9.108;2023-02-23T08:58:35;13.57;;;6.87;;
6791;SDS011;3433;48.730;9.108;2023-02-23T09:01:22;9.50;;;6.00;;
6791;SDS011;3433;48.730;9.108;2023-02-23T09:04:10;14.87;;;6.80;;
6791;SDS011;3433;48.730;9.108;2023-02-23T09:06:57;11.33;;;5.80;;
6791;SDS011;3433;48.730;9.108;2023-02-23T09:09:44;14.00;;;5.50;;
6791;SDS011;3433;48.730;9.108;2023-02-23T09:12:32;9.10;;;4.90;;
6791;SDS011;3433;48.730;9.108;2023-02-23T09:15:21;8.03;;;5.33;;
6791;SDS011;3433;48.730;9.108;2023-02-23T09:18:09;10.50;;;5.27;;
6791;SDS011;3433;48.730;9.108;2023-02-23T09:21:00;8.60;;;5.00;;
6791;SDS011;3433;48.730;9.108;2023-02-23T09:23:51;7.90;;;4.90;;
6791;SDS011;3433;48.730;9.108;2023-02-23T09:26:40;14.40;;;5.30;;
6791;SDS011;3433;48.730;9.108;2023-02-23T09:29:27;8.57;;;5.13;;
6791;SDS011;3433;48.730;9.108;2023-02-23T09:32:16;7.93;;;5.67;;
6791;SDS011;3433;48.730;9.108;2023-02-23T09:35:04;9.93;;;5.27;;
6791;SDS011;3433;48.730;9.108;2023-02-23T09:37:52;9.87;;;6.00;;
6791;SDS011;3433;48.730;9.108;2023-02-23T09:40:43;10.73;;;6.23;;
6791;SDS011;3433;48.730;9.108;2023-02-23T09:43:34;13.27;;;5.80;;
6791;SDS011;3433;48.730;9.108;2023-02-23T09:46:29;7.30;;;5.17;;
6791;SDS011;3433;48.730;9.108;2023-02-23T09:49:25;10.43;;;6.07;;
6791;SDS011;3433;48.730;9.108;2023-02-23T09:52:16;11.20;;;5.60;;
6791;SDS011;3433;48.730;9.108;2023-02-23T09:55:08;7.90;;;4.80;;
6791;SDS011;3433;48.730;9.108;2023-02-23T09:57:57;7.57;;;4.63;;
6791;SDS011;3433;48.730;9.108;2023-02-23T10:00:54;11.50;;;4.50;;
6791;SDS011;3433;48.730;9.108;2023-02-23T10:04:02;6.37;;;4.07;;
6791;SDS011;3433;48.730;9.108;2023-02-23T10:06:58;5.90;;;3.60;;
6791;SDS011;3433;48.730;9.108;2023-02-23T10:09:54;8.30;;;3.70;;
6791;SDS011;3433;48.730;9.108;2023-02-23T10:12:49;6.07;;;3.10;;
6791;SDS011;3433;48.730;9.108;2023-02-23T10:15:42;5.50;;;3.17;;
6791;SDS011;3433;48.730;9.108;2023-02-23T10:18:33;6.27;;;3.00;;
6791;SDS011;3433;48.730;9.108;2023-02-23T10:21:26;7.53;;;2.87;;
6791;SDS011;3433;48.730;9.108;2023-02-23T10:24:21;8.80;;;3.20;;
6791;SDS011;3433;48.730;9.108;2023-02-23T10:27:13;7.83;;;3.23;;
6791;SDS011;3433;48.730;9.108;2023-02-23T10:30:02;8.83;;;3.43;;
6791;SDS011;3433;48.730;9.108;2023-02-23T10:33:03;7.67;;;2.83;;
6791;SDS011;3433;48.730;9.108;2023-02-23T10:35:56;7.93;;;4.13;;
6791;SDS011;3433;48.730;9.108;2023-02-23T10:38:47;8.33;;;3.40;;
6791;SDS011;3433;48.730;9.108;2023-02-23T10:41:36;10.00;;;3.40;;
6791;SDS011;3433;48.730;9.108;2023-02-23T10:44:24;6.60;;;2.90;;
6791;SDS011;3433;48.730;9.108;2023-02-23T10:47:14;6.60;;;3.33;;
6791;SDS011;3433;48.730;9.108;2023-02-23T10:50:03;11.60;;;3.43;;
6791;SDS011;3433;48.730;9.108;2023-02-23T10:52:53;8.97;;;3.60;;
6791;SDS011;3433;48.730;9.108;2023-02-23T10:55:43;8.57;;;3.10;;
6791;SDS011;3433;48.730;9.108;2023-02-23T10:58:39;7.80;;;3.30;;
6791;SDS011;3433;48.730;9.108;2023-02-23T11:01:32;4.83;;;2.83;;
6791;SDS011;3433;48.730;9.108;2023-02-23T11:04:23;8.73;;;3.13;;
6791;SDS011;3433;48.730;9.108;2023-02-23T11:07:14;5.07;;;2.33;;
6791;SDS011;3433;48.730;9.108;2023-02-23T11:13:20;8.97;;;4.20;;
6791;SDS011;3433;48.730;9.108;2023-02-23T11:16:10;9.60;;;3.60;;
6791;SDS011;3433;48.730;9.108;2023-02-23T11:19:00;5.80;;;2.93;;
6791;SDS011;3433;48.730;9.108;2023-02-23T11:21:49;8.13;;;3.20;;
6791;SDS011;3433;48.730;9.108;2023-02-23T11:24:38;8.00;;;3.27;;
6791;SDS011;3433;48.730;9.108;2023-02-23T11:27:27;8.13;;;3.40;;
6791;SDS011;3433;48.730;9.108;2023-02-23T11:30:14;6.07;;;3.57;;
6791;SDS011;3433;48.730;9.108;2023-02-23T11:33:07;8.67;;;2.87;;
6791;SDS011;3433;48.730;9.108;2023-02-23T11:36:15;7.87;;;3.20;;
6791;SDS011;3433;48.730;9.108;2023-02-23T11:39:05;4.13;;;2.50;;
6791;SDS011;3433;48.730;9.108;2023-02-23T11:42:15;8.43;;;3.73;;
6791;SDS011;3433;48.730;9.108;2023-02-23T11:45:04;6.70;;;2.63;;
6791;SDS011;3433;48.730;9.108;2023-02-23T11:47:53;5.33;;;2.80;;
6791;SDS011;3433;48.730;9.108;2023-02-23T11:50:45;7.43;;;2.97;;
6791;SDS011;3433;48.730;9.108;2023-02-23T11:53:37;6.00;;;2.90;;
6791;SDS011;3433;48.730;9.108;2023-02-23T11:56:26;4.43;;;2.50;;
6791;SDS011;3433;48.730;9.108;2023-02-23T11:59:17;7.60;;;3.00;;
6791;SDS011;3433;48.730;9.108;2023-02-23T12:02:16;6.57;;;2.80;;
6791;SDS011;3433;48.730;9.108;2023-02-23T12:05:08;5.50;;;3.17;;
6791;SDS011;3433;48.730;9.108;2023-02-23T12:08:05;4.67;;;3.23;;
6791;SDS011;3433;48.730;9.108;2023-02-23T12:10:58;9.40;;;3.43;;
6791;SDS011;3433;48.730;9.108;2023-02-23T12:13:49;8.20;;;3.13;;
6791;SDS011;3433;48.730;9.108;2023-02-23T12:16:43;8.30;;;3.00;;
6791;SDS011;3433;48.730;9.108;2023-02-23T12:19:35;7.03;;;2.60;;
6791;SDS011;3433;48.730;9.108;2023-02-23T12:22:27;5.63;;;2.40;;
6791;SDS011;3433;48.730;9.108;2023-02-23T12:25:21;9.60;;;3.03;;
6791;SDS011;3433;48.730;9.108;2023-02-23T12:28:15;5.63;;;2.20;;
6791;SDS011;3433;48.730;9.108;2023-02-23T12:31:10;4.43;;;2.33;;
6791;SDS011;3433;48.730;9.108;2023-02-23T12:34:09;4.27;;;2.40;;
6791;SDS011;3433;48.730;9.108;2023-02-23T12:37:03;11.63;;;4.77;;
6791;SDS011;3433;48.730;9.108;2023-02-23T12:40:06;16.60;;;7.90;;
6791;SDS011;3433;48.730;9.108;2023-02-23T12:43:03;15.03;;;8.67;;
6791;SDS011;3433;48.730;9.108;2023-02-23T12:45:58;17.00;;;8.53;;
6791;SDS011;3433;48.730;9.108;2023-02-23T12:48:55;15.40;;;6.97;;
6791;SDS011;3433;48.730;9.108;2023-02-23T12:51:49;15.17;;;6.80;;
6791;SDS011;3433;48.730;9.108;2023-02-23T12:54:39;10.40;;;6.07;;
6791;SDS011;3433;48.730;9.108;2023-02-23T12:57:29;11.30;;;6.40;;
6791;SDS011;3433;48.730;9.108;2023-02-23T13:00:31;10.20;;;6.70;;
6791;SDS011;3433;48.730;9.108;2023-02-23T13:03:44;13.40;;;6.63;;
6791;SDS011;3433;48.730;9.108;2023-02-23T13:06:46;12.53;;;6.17;;
6791;SDS011;3433;48.730;9.108;2023-02-23T13:09:42;13.47;;;6.20;;
6791;SDS011;3433;48.730;9.108;2023-02-23T13:12:39;10.27;;;6.37;;
6791;SDS011;3433;48.730;9.108;2023-02-23T13:15:39;9.67;;;6.13;;
6791;SDS011;3433;48.730;9.108;2023-02-23T13:18:37;10.23;;;5.40;;
6791;SDS011;3433;48.730;9.108;2023-02-23T13:21:30;9.57;;;5.97;;
6791;SDS011;3433;48.730;9.108;2023-02-23T13:24:22;8.67;;;5.70;;
6791;SDS011;3433;48.730;9.108;2023-02-23T13:27:12;9.10;;;5.03;;
6791;SDS011;3433;48.730;9.108;2023-02-23T13:30:02;12.93;;;5.10;;
6791;SDS011;3433;48.730;9.108;2023-02-23T13:32:55;8.37;;;5.10;;
6791;SDS011;3433;48.730;9.108;2023-02-23T13:35:43;9.63;;;5.10;;
6791;SDS011;3433;48.730;9.108;2023-02-23T13:38:32;12.40;;;4.47;;
6791;SDS011;3433;48.730;9.108;2023-02-23T13:41:30;8.63;;;5.10;;
6791;SDS011;3433;48.730;9.108;2023-02-23T13:44:24;7.33;;;4.97;;
6791;SDS011;3433;48.730;9.108;2023-02-23T13:47:29;11.73;;;4.50;;
6791;SDS011;3433;48.730;9.108;2023-02-23T13:50:28;12.20;;;5.90;;
6791;SDS011;3433;48.730;9.108;2023-02-23T13:53:32;12.10;;;5.63;;
6791;SDS011;3433;48.730;9.108;2023-02-23T13:56:24;12.93;;;5.10;;
6791;SDS011;3433;48.730;9.108;2023-02-23T13:59:14;10.60;;;6.90;;
6791;SDS011;3433;48.730;9.108;2023-02-23T14:02:15;16.13;;;7.63;;
6791;SDS011;3433;48.730;9.108;2023-02-23T14:05:15;14.73;;;8.33;;
6791;SDS011;3433;48.730;9.108;2023-02-23T14:08:06;21.10;;;8.20;;
6791;SDS011;3433;48.730;9.108;2023-02-23T14:10:53;17.07;;;8.07;;
6791;SDS011;3433;48.730;9.108;2023-02-23T14:13:44;12.57;;;7.83;;
6791;SDS011;3433;48.730;9.108;2023-02-23T14:16:53;13.97;;;8.23;;
6791;SDS011;3433;48.730;9.108;2023-02-23T14:20:02;13.77;;;7.60;;
6791;SDS011;3433;48.730;9.108;2023-02-23T14:23:16;14.40;;;7.50;;
6791;SDS011;3433;48.730;9.108;2023-02-23T14:29:30;8.37;;;6.50;;
6791;SDS011;3433;48.730;9.108;2023-02-23T14:32:27;16.93;;;7.30;;
6791;SDS011;3433;48.730;9.108;2023-02-23T14:38:31;15.77;;;7.80;;
6791;SDS011;3433;48.730;9.108;2023-02-23T14:41:21;13.47;;;7.07;;
6791;SDS011;3433;48.730;9.108;2023-02-23T14:44:12;9.67;;;6.40;;
6791;SDS011;3433;48.730;9.108;2023-02-23T14:47:02;8.20;;;5.27;;
6791;SDS011;3433;48.730;9.108;2023-02-23T14:49:53;12.23;;;6.37;;
6791;SDS011;3433;48.730;9.108;2023-02-23T14:52:43;8.37;;;5.03;;
6791;SDS011;3433;48.730;9.108;2023-02-23T14:55:32;8.10;;;3.83;;
6791;SDS011;3433;48.730;9.108;2023-02-23T14:58:22;8.60;;;4.53;;
6791;SDS011;3433;48.730;9.108;2023-02-23T15:01:11;7.67;;;4.30;;
6791;SDS011;3433;48.730;9.108;2023-02-23T15:04:08;7.63;;;4.20;;
6791;SDS011;3433;48.730;9.108;2023-02-23T15:06:57;5.50;;;3.40;;
6791;SDS011;3433;48.730;9.108;2023-02-23T15:09:46;5.00;;;3.40;;
6791;SDS011;3433;48.730;9.108;2023-02-23T15:12:36;7.20;;;3.20;;
6791;SDS011;3433;48.730;9.108;2023-02-23T15:15:24;4.40;;;3.20;;
6791;SDS011;3433;48.730;9.108;2023-02-23T15:18:13;4.53;;;2.80;;
6791;SDS011;3433;48.730;9.108;2023-02-23T15:21:07;6.70;;;3.13;;
6791;SDS011;3433;48.730;9.108;2023-02-23T15:23:58;3.70;;;3.00;;
6791;SDS011;3433;48.730;9.108;2023-02-23T15:26:49;3.77;;;2.83;;
6791;SDS011;3433;48.730;9.108;2023-02-23T15:29:38;5.70;;;3.20;;
6791;SDS011;3433;48.730;9.108;2023-02-23T15:32:26;4.77;;;3.33;;
6791;SDS011;3433;48.730;9.108;2023-02-23T15:35:13;7.60;;;3.50;;
6791;SDS011;3433;48.730;9.108;2023-02-23T15:38:01;7.03;;;3.57;;
6791;SDS011;3433;48.730;9.108;2023-02-23T15:40:52;7.63;;;3.30;;
6791;SDS011;3433;48.730;9.108;2023-02-23T15:43:42;8.30;;;4.33;;
6791;SDS011;3433;48.730;9.108;2023-02-23T15:46:30;7.30;;;4.50;;
6791;SDS011;3433;48.730;9.108;2023-02-23T15:49:20;6.10;;;4.90;;
6791;SDS011;3433;48.730;9.108;2023-02-23T15:52:13;13.97;;;5.97;;
6791;SDS011;3433;48.730;9.108;2023-02-23T15:55:05;8.00;;;5.23;;
6791;SDS011;3433;48.730;9.108;2023-02-23T15:57:55;8.80;;;6.03;;
6791;SDS011;3433;48.730;9.108;2023-02-23T16:01:00;7.80;;;5.80;;
6791;SDS011;3433;48.730;9.108;2023-02-23T16:03:57;17.30;;;7.23;;
6791;SDS011;3433;48.730;9.108;2023-02-23T16:06:50;11.40;;;6.60;;
6791;SDS011;3433;48.730;9.108;2023-02-23T16:09:38;11.20;;;6.20;;
6791;SDS011;3433;48.730;9.108;2023-02-23T16:12:27;10.63;;;6.47;;
6791;SDS011;3433;48.730;9.108;2023-02-23T16:15:20;10.37;;;6.30;;
6791;SDS011;3433;48.730;9.108;2023-02-23T16:18:11;13.63;;;7.50;;
6791;SDS011;3433;48.730;9.108;2023-02-23T16:21:03;16.23;;;9.17;;
6791;SDS011;3433;48.730;9.108;2023-02-23T16:23:51;14.03;;;7.57;;
6791;SDS011;3433;48.730;9.108;2023-02-23T16:26:40;11.90;;;6.97;;
6791;SDS011;3433;48.730;9.108;2023-02-23T16:29:33;15.83;;;7.20;;
6791;SDS011;3433;48.730;9.108;2023-02-23T16:32:31;8.10;;;6.00;;
6791;SDS011;3433;48.730;9.108;2023-02-23T16:35:20;14.90;;;5.57;;
6791;SDS011;3433;48.730;9.108;2023-02-23T16:38:11;10.33;;;5.87;;
6791;SDS011;3433;48.730;9.108;2023-02-23T16:41:00;13.00;;;6.67;;
6791;SDS011;3433;48.730;9.108;2023-02-23T16:43:48;10.43;;;6.30;;
6791;SDS011;3433;48.730;9.108;2023-02-23T16:46:53;12.93;;;7.10;;
6791;SDS011;3433;48.730;9.108;2023-02-23T16:49:42;8.13;;;4.90;;
6791;SDS011;3433;48.730;9.108;2023-02-23T16:52:30;10.37;;;6.70;;
6791;SDS011;3433;48.730;9.108;2023-02-23T16:55:19;14.83;;;6.60;;
6791;SDS011;3433;48.730;9.108;2023-02-23T16:58:13;11.63;;;6.60;;
6791;SDS011;3433;48.730;9.108;2023-02-23T17:01:03;11.37;;;7.53;;
6791;SDS011;3433;48.730;9.108;2023-02-23T17:03:51;13.53;;;7.73;;
6791;SDS011;3433;48.730;9.108;2023-02-23T17:06:38;10.73;;;6.67;;
6791;SDS011;3433;48.730;9.108;2023-02-23T17:09:27;13.63;;;7.37;;
6791;SDS011;3433;48.730;9.108;2023-02-23T17:12:16;11.50;;;7.33;;
6791;SDS011;3433;48.730;9.108;2023-02-23T17:15:08;11.90;;;8.47;;
6791;SDS011;3433;48.730;9.108;2023-02-23T17:18:01;13.83;;;7.37;;
6791;SDS011;3433;48.730;9.108;2023-02-23T17:20:49;8.20;;;6.50;;
6791;SDS011;3433;48.730;9.108;2023-02-23T17:23:37;10.57;;;6.67;;
6791;SDS011;3433;48.730;9.108;2023-02-23T17:26:26;12.27;;;7.07;;
6791;SDS011;3433;48.730;9.108;2023-02-23T17:29:15;12.93;;;7.50;;
6791;SDS011;3433;48.730;9.108;2023-02-23T17:32:03;15.60;;;7.30;;
6791;SDS011;3433;48.730;9.108;2023-02-23T17:34:51;12.33;;;8.00;;
6791;SDS011;3433;48.730;9.108;2023-02-23T17:37:38;11.20;;;6.90;;
6791;SDS011;3433;48.730;9.108;2023-02-23T17:40:25;12.50;;;7.23;;
6791;SDS011;3433;48.730;9.108;2023-02-23T17:43:13;13.90;;;7.93;;
6791;SDS011;3433;48.730;9.108;2023-02-23T17:46:02;14.70;;;8.60;;
6791;SDS011;3433;48.730;9.108;2023-02-23T17:48:50;13.97;;;8.00;;
6791;SDS011;3433;48.730;9.108;2023-02-23T17:51:37;13.70;;;7.60;;
6791;SDS011;3433;48.730;9.108;2023-02-23T17:54:24;11.90;;;7.53;;
6791;SDS011;3433;48.730;9.108;2023-02-23T17:57:13;10.93;;;7.37;;
6791;SDS011;3433;48.730;9.108;2023-02-23T18:00:01;11.77;;;7.27;;
6791;SDS011;3433;48.730;9.108;2023-02-23T18:02:52;14.10;;;7.73;;
6791;SDS011;3433;48.730;9.108;2023-02-23T18:05:40;13.73;;;8.50;;
6791;SDS011;3433;48.730;9.108;2023-02-23T18:08:27;14.50;;;8.80;;